Minerva Anna — SVNP — position and weather

sailwx.info

Track history (hours):
 
Tides and Currents Weather Stations Pressure Air Temp Water Temp Dewpoint Dewpoint Depression Visibility Wind Speed Wind Dir Waves Ship Positions

Minerva Anna

Last reported at 2018-Apr-07 13:50 UTC. Time now 2018-Apr-25 20:23 UTC.
Position N 17°50' W 061°05'.
Warning: this ship's position is 18 days out of date.

Length 183 m; draft 9.5 m.

Type: Ship. MMSI: 240729000.

Date/timePositionNaut miles runAvg speedWind from/ knotsBaromVisibWave heightAir tempDewpointWater temp
2018-Apr-07 13:50N 17°50' W 061°05'612.5
2018-Apr-07 13:21N 17°54' W 061°11'  
2018-Apr-01 12:07N 29°16' W 089°21'313.6
2018-Apr-01 11:56N 29°19' W 089°22'512.8
2018-Apr-01 11:30N 29°21' W 089°28'813.5
2018-Apr-01 10:57N 29°24' W 089°36'612.2
2018-Apr-01 10:26N 29°28' W 089°41'715.8
2018-Apr-01 09:58N 29°34' W 089°47'815.8
2018-Apr-01 09:29N 29°37' W 089°54'914.0
2018-Apr-01 08:52N 29°44' W 090°00'913.0
2018-Apr-01 08:11N 29°53' W 089°58'3 9.0
2018-Apr-01 07:51N 29°54' W 089°54'810.2
2018-Apr-01 07:03N 29°56' W 090°04'114.7
2018-Apr-01 07:00N 29°55' W 090°04'710.0
2018-Apr-01 06:17N 29°55' W 090°13'511.6
2018-Apr-01 05:50N 29°57' W 090°18'19 0.8
2018-Mar-31 06:45N 30°03' W 090°39'0 0.0
2018-Mar-31 06:29N 30°03' W 090°39'3 2.6
2018-Mar-31 05:30N 30°03' W 090°36'3 7.2
2018-Mar-31 05:01N 30°03' W 090°32'5 5.4
2018-Mar-31 04:10N 29°60' W 090°28'5 5.0
2018-Mar-31 03:11N 29°57' W 090°23'1 7.0
2018-Mar-31 03:00N 29°56' W 090°22'  
Track history (hours):
 
Tides and Currents Weather Stations Pressure Air Temp Water Temp Dewpoint Dewpoint Depression Visibility Wind Speed Wind Dir Waves Ship Positions

Minerva Anna

Last reported at 2018-Apr-07 13:50 UTC. Time now 2018-Apr-25 20:23 UTC.
Position N 17°50' W 061°05'.
Warning: this ship's position is 18 days out of date.

Length 183 m; draft 9.5 m.

Type: Ship. MMSI: 240729000.

Date/timePositionNaut miles runAvg speedWind from/ knotsBaromVisibWave heightAir tempDewpointWater temp
2018-Apr-07 13:50N 17°50' W 061°05'612.5
2018-Apr-07 13:21N 17°54' W 061°11'  
2018-Apr-01 12:07N 29°16' W 089°21'313.6
2018-Apr-01 11:56N 29°19' W 089°22'512.8
2018-Apr-01 11:30N 29°21' W 089°28'813.5
2018-Apr-01 10:57N 29°24' W 089°36'612.2
2018-Apr-01 10:26N 29°28' W 089°41'715.8
2018-Apr-01 09:58N 29°34' W 089°47'815.8
2018-Apr-01 09:29N 29°37' W 089°54'914.0
2018-Apr-01 08:52N 29°44' W 090°00'913.0
2018-Apr-01 08:11N 29°53' W 089°58'3 9.0
2018-Apr-01 07:51N 29°54' W 089°54'810.2
2018-Apr-01 07:03N 29°56' W 090°04'114.7
2018-Apr-01 07:00N 29°55' W 090°04'710.0
2018-Apr-01 06:17N 29°55' W 090°13'511.6
2018-Apr-01 05:50N 29°57' W 090°18'19 0.8
2018-Mar-31 06:45N 30°03' W 090°39'0 0.0
2018-Mar-31 06:29N 30°03' W 090°39'3 2.6
2018-Mar-31 05:30N 30°03' W 090°36'3 7.2
2018-Mar-31 05:01N 30°03' W 090°32'5 5.4
2018-Mar-31 04:10N 29°60' W 090°28'5 5.0
2018-Mar-31 03:11N 29°57' W 090°23'1 7.0
2018-Mar-31 03:00N 29°56' W 090°22'  

Dump ship's entire track history